Time;durP1;ratioP1;P1;durP2;ratioP2;P2;SDS_P1;SDS_P2;PMS_P1;PMS_P2;Temp;Humidity;BMP_temperature;BMP_pressure;BME280_temperature;BME280_humidity;BME280_pressure;Samples;Min_cycle;Max_cycle;Signal;HPM_P1;HPM_P2
2023/07/24 00:01:08;;;;;;;18.05;14.90;;;;;;;28.52;48.79;100815.94;5072147;28;20053;-55
2023/07/24 00:03:36;;;;;;;16.65;13.10;;;;;;;28.53;48.92;100823.06;5064372;28;20050;-56
2023/07/24 00:06:03;;;;;;;17.23;13.13;;;;;;;28.52;48.71;100818.66;5067165;28;20055;-55
2023/07/24 00:08:31;;;;;;;17.52;13.23;;;;;;;28.53;48.58;100814.03;5068067;28;20058;-55
2023/07/24 00:10:58;;;;;;;18.52;14.27;;;;;;;28.53;48.82;100811.31;5065124;28;20045;-54
2023/07/24 00:13:26;;;;;;;18.95;14.43;;;;;;;28.53;48.53;100817.59;5064003;28;20060;-54
2023/07/24 00:15:53;;;;;;;17.05;14.02;;;;;;;28.52;48.62;100810.47;5066772;28;20037;-54
2023/07/24 00:18:21;;;;;;;19.00;14.68;;;;;;;28.54;48.55;100813.00;5067757;28;20048;-56
2023/07/24 00:20:49;;;;;;;17.90;13.43;;;;;;;28.55;48.59;100810.06;5065075;28;20052;-55
2023/07/24 00:23:16;;;;;;;18.17;13.68;;;;;;;28.55;48.35;100803.78;5063934;28;20057;-56
2023/07/24 00:25:44;;;;;;;16.67;13.52;;;;;;;28.55;48.55;100796.44;5066764;28;20056;-55
2023/07/24 00:28:11;;;;;;;19.05;14.60;;;;;;;28.55;48.36;100799.19;5067306;28;20063;-54
2023/07/24 00:30:38;;;;;;;19.05;14.52;;;;;;;28.56;48.35;100803.59;5064840;28;20531;-54
2023/07/24 00:33:06;;;;;;;17.90;13.35;;;;;;;28.55;48.43;100782.84;5060503;28;20063;-55
2023/07/24 00:35:33;;;;;;;17.73;13.23;;;;;;;28.55;48.41;100771.94;5061682;28;20056;-54
2023/07/24 00:38:01;;;;;;;16.17;12.88;;;;;;;28.56;47.90;100775.50;5064167;28;20052;-54
2023/07/24 00:40:28;;;;;;;18.27;13.38;;;;;;;28.56;47.92;100778.22;5063929;28;20053;-54
2023/07/24 00:42:55;;;;;;;17.88;14.40;;;;;;;28.57;48.24;100790.84;5061878;28;20055;-55
2023/07/24 00:45:23;;;;;;;16.77;13.70;;;;;;;28.57;48.44;100779.94;5066192;28;20057;-53
2023/07/24 00:47:51;;;;;;;18.23;13.52;;;;;;;28.57;48.04;100782.66;5066463;28;20047;-56
2023/07/24 00:50:19;;;;;;;17.50;14.07;;;;;;;28.57;48.03;100785.38;5064172;28;20052;-56
2023/07/24 00:52:47;;;;;;;18.05;13.95;;;;;;;28.57;48.33;100788.09;5063230;28;20056;-56
2023/07/24 00:55:16;;;;;;;15.82;13.25;;;;;;;28.57;48.03;100785.38;5066314;28;20400;-55
2023/07/24 00:57:44;;;;;;;18.30;13.85;;;;;;;28.57;48.05;100778.06;5064579;28;20049;-56
2023/07/24 01:00:12;;;;;;;18.05;13.90;;;;;;;28.56;48.11;100779.09;5071641;28;20489;-56
2023/07/24 01:02:39;;;;;;;19.30;14.68;;;;;;;28.57;48.43;100778.06;5055779;28;20060;-55
2023/07/24 01:05:14;;;;;;;17.65;13.10;;;;;;;28.58;48.47;100782.47;5067148;28;20419;-56
2023/07/24 01:07:42;;;;;;;17.38;13.18;;;;;;;28.58;48.34;100785.19;5069286;28;20082;-54
2023/07/24 01:10:10;;;;;;;16.67;13.48;;;;;;;28.59;48.36;100792.31;5063538;28;20056;-55
2023/07/24 01:12:43;;;;;;;15.82;12.88;;;;;;;28.59;48.56;100781.41;5063108;28;20060;-54
2023/07/24 01:15:24;;;;;;;18.92;14.25;;;;;;;28.58;48.27;100785.19;5059479;28;20056;-55
2023/07/24 01:18:01;;;;;;;17.38;13.93;;;;;;;28.59;48.40;100789.59;5072085;28;20056;-56
2023/07/24 01:20:33;;;;;;;16.73;13.00;;;;;;;28.61;48.61;100785.84;5066256;28;20052;-57
2023/07/24 01:23:34;;;;;;;15.90;12.98;;;;;;;28.61;48.52;100791.28;5066503;28;20487;-57
2023/07/24 01:26:04;;;;;;;16.40;13.30;;;;;;;28.59;48.25;100789.59;5055065;28;20045;-57
2023/07/24 01:28:31;;;;;;;15.93;13.10;;;;;;;28.61;48.26;100794.00;5057823;28;20048;-55
2023/07/24 01:30:59;;;;;;;17.52;13.88;;;;;;;28.60;48.24;100790.41;5064887;28;20053;-55
2023/07/24 01:33:26;;;;;;;18.02;13.60;;;;;;;28.61;47.88;100788.56;5064397;28;20397;-55
2023/07/24 01:35:58;;;;;;;14.93;12.23;;;;;;;28.62;47.83;100792.97;5062163;28;20049;-55
2023/07/24 01:38:27;;;;;;;16.35;12.60;;;;;;;28.61;47.75;100792.13;5061643;28;20052;-55
2023/07/24 01:40:54;;;;;;;17.65;13.23;;;;;;;28.62;48.27;100787.53;5064027;28;20056;-56
2023/07/24 01:43:23;;;;;;;16.42;12.98;;;;;;;28.61;48.18;100770.34;5064104;28;20051;-55
2023/07/24 01:45:50;;;;;;;15.70;13.40;;;;;;;28.61;47.71;100769.50;5055538;28;20064;-55
2023/07/24 01:48:17;;;;;;;15.52;13.05;;;;;;;28.62;48.05;100749.38;5055611;28;20048;-55
2023/07/24 01:50:45;;;;;;;17.35;13.80;;;;;;;28.61;48.12;100745.00;5055755;28;20488;-55
2023/07/24 01:53:12;;;;;;;17.33;12.80;;;;;;;28.61;48.02;100734.09;5056871;28;20052;-55
2023/07/24 01:55:39;;;;;;;19.35;14.23;;;;;;;28.62;48.17;100744.78;5053903;28;20048;-55
2023/07/24 01:58:07;;;;;;;18.60;14.10;;;;;;;28.62;47.88;100743.94;5054512;28;20049;-54
2023/07/24 02:00:34;;;;;;;17.98;13.38;;;;;;;28.62;48.15;100738.50;5055240;28;20064;-53
2023/07/24 02:03:01;;;;;;;18.17;13.10;;;;;;;28.62;48.10;100730.31;5064103;28;20428;-54
2023/07/24 02:05:29;;;;;;;17.15;13.82;;;;;;;28.62;47.90;100733.03;5067171;28;20044;-53
2023/07/24 02:07:57;;;;;;;17.30;13.25;;;;;;;28.61;48.00;100745.81;5069903;28;20051;-54
2023/07/24 02:10:24;;;;;;;17.35;13.63;;;;;;;28.61;47.97;100740.38;5065575;28;20056;-54
2023/07/24 02:12:51;;;;;;;18.52;14.07;;;;;;;28.61;47.77;100734.94;5062664;28;20045;-54
2023/07/24 02:15:19;;;;;;;15.90;12.35;;;;;;;28.61;47.70;100729.47;5054005;28;20505;-54
2023/07/24 02:17:46;;;;;;;18.13;12.85;;;;;;;28.62;47.95;100708.53;5055114;28;20128;-55
2023/07/24 02:20:14;;;;;;;18.20;13.00;;;;;;;28.61;48.14;100688.63;5061789;28;20488;-55
2023/07/24 02:22:41;;;;;;;17.90;13.73;;;;;;;28.61;47.84;100655.09;5063535;28;20045;-55
2023/07/24 02:25:09;;;;;;;18.45;13.15;;;;;;;28.61;48.18;100623.25;5060201;28;20493;-55
2023/07/24 02:27:36;;;;;;;17.63;12.95;;;;;;;28.61;48.41;100606.06;5064114;28;20048;-54
2023/07/24 02:30:04;;;;;;;17.27;12.23;;;;;;;28.62;48.02;100624.09;5065237;28;20044;-53
2023/07/24 02:32:32;;;;;;;16.15;12.82;;;;;;;28.61;48.14;100649.66;5061270;28;20071;-53
2023/07/24 02:34:59;;;;;;;14.55;13.00;;;;;;;28.61;48.32;100672.28;5061653;28;20413;-54
2023/07/24 02:37:27;;;;;;;16.85;13.48;;;;;;;28.61;48.05;100688.63;5054873;28;20049;-54
2023/07/24 02:39:54;;;;;;;18.20;14.23;;;;;;;28.61;47.97;100701.41;5061621;28;20044;-54
2023/07/24 02:42:22;;;;;;;17.50;13.68;;;;;;;28.61;47.53;100706.84;5062378;28;20531;-54
2023/07/24 02:44:50;;;;;;;17.58;13.75;;;;;;;28.60;47.68;100697.81;5055291;28;20052;-53
2023/07/24 02:47:18;;;;;;;15.98;13.07;;;;;;;28.59;47.59;100693.41;5058406;28;20059;-55
2023/07/24 02:49:45;;;;;;;15.38;12.60;;;;;;;28.58;47.63;100681.69;5063233;28;20060;-55
2023/07/24 02:52:12;;;;;;;17.48;13.50;;;;;;;28.59;47.84;100682.50;5061772;28;20064;-55
2023/07/24 02:54:40;;;;;;;18.55;13.45;;;;;;;28.58;47.38;100686.28;5063037;28;20048;-55
2023/07/24 02:57:07;;;;;;;16.95;13.73;;;;;;;28.58;47.37;100687.13;5057481;28;20050;-54
2023/07/24 02:59:35;;;;;;;18.27;14.68;;;;;;;28.58;47.50;100678.97;5058680;28;20400;-53
2023/07/24 03:02:02;;;;;;;19.92;13.52;;;;;;;28.58;47.67;100684.41;5062973;28;20061;-54
2023/07/24 03:04:30;;;;;;;16.20;13.23;;;;;;;28.58;47.60;100691.72;5066758;28;20052;-54
2023/07/24 03:06:59;;;;;;;17.35;12.50;;;;;;;28.59;48.12;100702.41;5069618;28;20163;-52
2023/07/24 03:09:27;;;;;;;17.05;13.48;;;;;;;28.58;48.16;100698.03;5062817;28;20049;-54
2023/07/24 03:11:54;;;;;;;16.88;13.18;;;;;;;28.59;48.17;100699.69;5055941;28;20048;-53
2023/07/24 03:14:21;;;;;;;14.15;12.45;;;;;;;28.59;48.04;100705.16;5057113;28;20049;-53
2023/07/24 03:16:49;;;;;;;16.15;12.70;;;;;;;28.61;48.12;100712.31;5056814;28;20067;-54
2023/07/24 03:19:17;;;;;;;15.93;12.98;;;;;;;28.61;48.17;100715.03;5058735;28;20040;-54
2023/07/24 03:21:44;;;;;;;16.13;12.38;;;;;;;28.61;48.19;100725.91;5059656;28;20103;-54
2023/07/24 03:24:12;;;;;;;15.90;13.23;;;;;;;28.62;48.70;100735.78;5058641;28;20053;-53
2023/07/24 03:26:39;;;;;;;16.73;12.25;;;;;;;28.59;48.66;100745.16;5058117;28;20428;-61
2023/07/24 03:29:07;;;;;;;19.55;13.10;;;;;;;28.55;47.93;100733.81;5058687;28;20033;-61
2023/07/24 03:31:34;;;;;;;17.20;13.63;;;;;;;28.53;48.16;100735.91;5065893;28;20509;-61
2023/07/24 03:34:01;;;;;;;16.20;12.95;;;;;;;28.49;47.69;100721.00;5064226;28;20519;-61
2023/07/24 03:36:29;;;;;;;16.17;12.48;;;;;;;28.48;47.46;100713.00;5067085;28;20060;-60
2023/07/24 03:38:56;;;;;;;16.73;13.13;;;;;;;28.45;47.69;100710.69;5067989;28;20051;-61
2023/07/24 03:41:24;;;;;;;19.00;14.10;;;;;;;28.41;47.04;100709.41;5066240;28;20053;-61
2023/07/24 03:43:54;;;;;;;18.00;13.90;;;;;;;28.35;46.91;100695.47;5056634;28;20416;-61
2023/07/24 03:46:22;;;;;;;18.15;14.05;;;;;;;28.32;47.20;100690.44;5056805;28;20057;-58
2023/07/24 03:48:50;;;;;;;16.52;13.02;;;;;;;28.32;47.13;100667.81;5059168;28;20053;-54
2023/07/24 03:51:18;;;;;;;20.17;14.07;;;;;;;28.31;47.45;100661.50;5057336;28;20045;-54
2023/07/24 03:53:45;;;;;;;18.20;14.43;;;;;;;28.30;47.54;100659.81;5069317;28;20044;-54
2023/07/24 03:56:12;;;;;;;18.63;13.82;;;;;;;28.30;47.51;100661.72;5064593;28;20052;-54
2023/07/24 03:58:40;;;;;;;18.42;13.43;;;;;;;28.30;47.71;100648.09;5058484;28;20045;-61
2023/07/24 04:01:08;;;;;;;19.30;13.88;;;;;;;28.28;47.70;100640.13;5058076;28;20056;-61
2023/07/24 04:03:35;;;;;;;16.88;12.98;;;;;;;28.27;47.62;100641.16;5069013;28;20048;-61
2023/07/24 04:06:03;;;;;;;17.77;13.65;;;;;;;28.26;48.01;100644.91;5067492;28;20420;-61
2023/07/24 04:08:30;;;;;;;19.05;14.70;;;;;;;28.26;47.72;100639.47;5073455;28;20044;-54
2023/07/24 04:10:58;;;;;;;17.30;13.57;;;;;;;28.21;47.94;100620.16;5065658;28;20036;-53
2023/07/24 04:13:25;;;;;;;16.77;13.15;;;;;;;28.19;48.10;100624.94;5067590;28;20048;-53
2023/07/24 04:15:52;;;;;;;19.95;14.20;;;;;;;28.17;47.96;100631.66;5073388;28;20412;-56
2023/07/24 04:18:20;;;;;;;17.73;13.05;;;;;;;28.14;47.99;100635.59;5061166;28;20056;-54
2023/07/24 04:20:47;;;;;;;17.70;13.65;;;;;;;28.12;47.73;100645.00;5058250;28;20068;-55
2023/07/24 04:23:14;;;;;;;17.45;13.43;;;;;;;28.10;48.28;100646.03;5057390;28;20373;-54
2023/07/24 04:25:42;;;;;;;18.10;13.52;;;;;;;28.12;47.78;100667.63;5057333;28;20061;-55
2023/07/24 04:28:09;;;;;;;18.30;13.68;;;;;;;28.13;47.93;100704.69;5057888;28;20400;-56
2023/07/24 04:30:36;;;;;;;19.45;14.25;;;;;;;28.12;47.72;100732.94;5064621;28;20049;-53
2023/07/24 04:33:04;;;;;;;16.52;13.68;;;;;;;28.12;47.72;100775.66;5068181;28;20060;-54
2023/07/24 04:35:31;;;;;;;16.25;13.57;;;;;;;28.10;47.61;100794.88;5067206;28;20049;-54
2023/07/24 04:37:58;;;;;;;18.45;13.98;;;;;;;28.10;47.75;100781.25;5073058;28;20496;-54
2023/07/24 04:40:26;;;;;;;17.73;13.63;;;;;;;28.09;47.68;100783.16;5065192;28;21039;-53
2023/07/24 04:42:53;;;;;;;20.15;15.02;;;;;;;28.12;47.82;100840.97;5068043;28;20049;-52
2023/07/24 04:45:20;;;;;;;20.40;15.40;;;;;;;28.12;47.98;100900.84;5072290;28;20049;-53
2023/07/24 04:47:50;;;;;;;17.83;14.15;;;;;;;28.08;47.52;100873.16;5064877;28;20501;-60
2023/07/24 04:50:17;;;;;;;17.88;13.82;;;;;;;28.06;47.43;100767.19;5071903;28;20036;-60
2023/07/24 04:52:45;;;;;;;17.77;13.98;;;;;;;28.04;47.27;100586.94;5068109;28;20048;-60
2023/07/24 04:55:12;;;;;;;19.65;14.23;;;;;;;28.05;47.60;100541.53;5067045;28;20051;-60
2023/07/24 04:57:40;;;;;;;19.25;13.88;;;;;;;28.06;47.66;100595.75;5072742;28;20048;-53
2023/07/24 05:00:08;;;;;;;18.88;14.32;;;;;;;28.06;47.74;100652.88;5065082;28;20052;-54
2023/07/24 05:02:35;;;;;;;16.95;13.50;;;;;;;28.07;48.16;100779.75;5067861;28;20045;-53
2023/07/24 05:05:02;;;;;;;18.35;14.40;;;;;;;28.07;48.47;100966.72;5066559;28;20048;-52
2023/07/24 05:07:30;;;;;;;20.33;13.43;;;;;;;28.04;48.87;101033.25;5066536;28;20051;-60
2023/07/24 05:09:57;;;;;;;17.60;13.90;;;;;;;28.02;48.89;101038.03;5057244;28;20037;-60
2023/07/24 05:12:25;;;;;;;16.35;12.85;;;;;;;28.01;49.02;101024.63;5068268;28;20041;-60
2023/07/24 05:14:52;;;;;;;18.33;14.05;;;;;;;27.99;48.64;100972.25;5066578;28;20052;-60
2023/07/24 05:17:19;;;;;;;17.23;13.95;;;;;;;28.00;48.89;100922.25;5072235;28;20048;-59
2023/07/24 05:19:47;;;;;;;19.45;14.05;;;;;;;27.98;48.91;100933.28;5064753;28;20044;-60
2023/07/24 05:22:15;;;;;;;17.48;13.27;;;;;;;27.97;48.83;100942.50;5067084;28;20496;-60
2023/07/24 05:24:42;;;;;;;18.17;13.65;;;;;;;27.96;48.41;100894.56;5071436;28;20052;-60
2023/07/24 05:27:09;;;;;;;16.17;13.73;;;;;;;27.97;48.55;100865.47;5064952;28;20407;-55
2023/07/24 05:29:37;;;;;;;17.75;14.05;;;;;;;27.97;48.63;100840.97;5063168;28;20052;-54
2023/07/24 05:32:04;;;;;;;17.48;14.65;;;;;;;27.97;49.01;100820.03;5065962;28;20052;-55
2023/07/24 05:34:32;;;;;;;19.23;14.57;;;;;;;27.96;48.58;100831.97;5065088;28;20508;-54
2023/07/24 05:36:59;;;;;;;17.38;13.18;;;;;;;27.95;48.65;100835.69;5071411;28;20412;-54
2023/07/24 05:39:27;;;;;;;17.23;13.38;;;;;;;27.95;49.04;100832.97;5064349;28;20060;-55
2023/07/24 05:41:54;;;;;;;19.15;13.68;;;;;;;27.94;49.03;100809.53;5066890;28;20052;-54
2023/07/24 05:44:22;;;;;;;16.02;13.32;;;;;;;27.93;49.15;100764.31;5070896;28;20049;-54
2023/07/24 05:46:50;;;;;;;16.83;13.77;;;;;;;27.92;49.45;100727.28;5065241;28;20056;-54
2023/07/24 05:49:17;;;;;;;18.50;13.77;;;;;;;27.92;49.81;100691.06;5070169;28;20060;-54
2023/07/24 05:51:44;;;;;;;20.48;13.90;;;;;;;27.90;49.80;100663.19;5067132;28;20041;-54
2023/07/24 05:54:12;;;;;;;16.50;12.98;;;;;;;27.88;49.97;100657.94;5065749;28;20040;-54
2023/07/24 05:56:39;;;;;;;17.17;13.10;;;;;;;27.87;50.00;100690.78;5071830;28;20044;-55
2023/07/24 05:59:07;;;;;;;18.63;13.13;;;;;;;27.85;49.87;100686.38;5063778;28;20052;-55
2023/07/24 06:01:34;;;;;;;18.42;13.70;;;;;;;27.86;49.97;100635.50;5063194;28;20041;-54
2023/07/24 06:04:01;;;;;;;18.45;13.30;;;;;;;27.86;50.41;100638.25;5070854;28;20041;-54
2023/07/24 06:06:29;;;;;;;17.58;13.02;;;;;;;27.86;50.02;100619.19;5065747;28;20049;-60
2023/07/24 06:08:57;;;;;;;15.90;13.52;;;;;;;27.86;50.06;100608.31;5063914;28;20067;-60
2023/07/24 06:11:26;;;;;;;18.10;13.32;;;;;;;27.84;49.89;100624.84;5066819;28;20040;-60
2023/07/24 06:13:53;;;;;;;17.70;12.80;;;;;;;27.84;49.83;100605.78;5071405;28;20049;-59
2023/07/24 06:16:21;;;;;;;17.65;12.13;;;;;;;27.84;49.67;100615.84;5064794;28;20067;-58
2023/07/24 06:18:48;;;;;;;16.70;11.68;;;;;;;27.84;49.49;100638.44;5069747;28;20044;-60
2023/07/24 06:21:15;;;;;;;15.75;12.23;;;;;;;27.84;49.57;100632.16;5066729;28;20508;-60
2023/07/24 06:23:43;;;;;;;17.17;12.02;;;;;;;27.84;49.67;100638.44;5065208;28;20049;-60
2023/07/24 06:26:10;;;;;;;17.90;12.70;;;;;;;27.83;49.51;100679.41;5071194;28;20045;-60
2023/07/24 06:28:37;;;;;;;15.85;12.07;;;;;;;27.83;49.71;100696.63;5063455;28;20055;-55
2023/07/24 06:31:05;;;;;;;17.77;12.60;;;;;;;27.84;49.25;100705.63;5065797;28;20053;-55
2023/07/24 06:33:32;;;;;;;17.52;13.27;;;;;;;27.86;49.80;100738.91;5064633;28;20049;-54
2023/07/24 06:35:59;;;;;;;16.08;11.88;;;;;;;27.87;49.81;100767.78;5065350;28;20047;-55
2023/07/24 06:38:27;;;;;;;15.80;12.52;;;;;;;27.89;49.53;100762.19;5062447;28;20045;-59
2023/07/24 06:40:54;;;;;;;16.27;12.13;;;;;;;27.91;49.90;100722.84;5061848;28;20045;-59
2023/07/24 06:43:22;;;;;;;16.88;12.52;;;;;;;27.93;50.33;100696.28;5067867;28;20053;-59
2023/07/24 06:45:49;;;;;;;14.57;11.63;;;;;;;27.94;50.57;100681.66;5056868;28;20492;-59
2023/07/24 06:48:16;;;;;;;15.63;12.20;;;;;;;27.95;50.41;100729.59;5066005;28;20499;-56
2023/07/24 06:50:43;;;;;;;16.15;12.90;;;;;;;27.96;50.61;100714.13;5062482;28;20050;-61
2023/07/24 06:53:11;;;;;;;17.63;13.27;;;;;;;27.96;50.88;100660.53;5063762;28;20045;-61
2023/07/24 06:55:38;;;;;;;17.55;12.65;;;;;;;27.97;51.01;100605.09;5065807;28;20059;-59
2023/07/24 06:58:06;;;;;;;14.77;11.55;;;;;;;27.92;51.98;100550.41;5064289;28;20045;-57
2023/07/24 07:00:33;;;;;;;17.08;12.35;;;;;;;27.83;52.51;100494.44;5058754;28;20052;-57
2023/07/24 07:03:00;;;;;;;15.05;11.77;;;;;;;27.75;52.68;100465.53;5063610;28;20067;-57
2023/07/24 07:05:28;;;;;;;17.33;13.55;;;;;;;27.60;53.19;100457.41;5065544;28;20048;-60
2023/07/24 07:07:55;;;;;;;22.70;14.48;;;;;;;27.40;53.25;100442.78;5066130;28;20048;-62
2023/07/24 07:10:22;;;;;;;18.88;14.00;;;;;;;27.24;53.71;100424.00;5068806;28;20044;-59
2023/07/24 07:12:50;;;;;;;18.13;13.02;;;;;;;27.17;53.80;100421.22;5062462;28;20044;-61
2023/07/24 07:15:17;;;;;;;19.48;13.45;;;;;;;27.12;53.90;100434.56;5069016;28;20048;-60
2023/07/24 07:17:44;;;;;;;19.60;14.15;;;;;;;27.05;53.94;100425.44;5066516;28;20047;-57
2023/07/24 07:20:12;;;;;;;15.80;12.68;;;;;;;27.06;53.92;100476.91;5064212;28;20049;-57
2023/07/24 07:22:39;;;;;;;18.02;12.80;;;;;;;27.12;53.85;100518.78;5067773;28;20049;-56
2023/07/24 07:25:07;;;;;;;18.33;13.95;;;;;;;27.11;53.77;100508.97;5068053;28;20041;-55
2023/07/24 07:27:34;;;;;;;19.98;14.20;;;;;;;27.11;53.74;100490.78;5065627;28;20052;-53
2023/07/24 07:30:02;;;;;;;17.05;13.25;;;;;;;27.17;53.78;100467.41;5064537;28;20045;-55
2023/07/24 07:32:29;;;;;;;16.15;12.95;;;;;;;27.18;53.58;100473.69;5067439;28;20492;-54
2023/07/24 07:34:57;;;;;;;18.20;13.68;;;;;;;27.18;53.91;100496.28;5073701;28;20052;-63
2023/07/24 07:37:24;;;;;;;24.38;15.48;;;;;;;27.18;54.73;100509.84;5066279;28;20417;-58
2023/07/24 07:39:51;;;;;;;22.38;14.18;;;;;;;27.05;55.19;100510.53;5066839;28;20045;-56
2023/07/24 07:42:19;;;;;;;17.67;13.77;;;;;;;26.99;55.25;100518.59;5062683;28;20049;-53
2023/07/24 07:44:46;;;;;;;18.48;14.18;;;;;;;26.97;55.42;100520.66;5061681;28;20052;-56
2023/07/24 07:47:14;;;;;;;24.70;16.10;;;;;;;26.97;55.31;100521.50;5065087;28;20044;-55
2023/07/24 07:49:41;;;;;;;21.10;15.77;;;;;;;26.92;55.77;100502.22;5062229;28;20049;-59
2023/07/24 07:52:09;;;;;;;20.45;15.70;;;;;;;26.81;55.89;100517.09;5061829;28;20396;-59
2023/07/24 07:54:36;;;;;;;20.00;16.10;;;;;;;26.74;55.93;100531.63;5065989;28;20048;-58
2023/07/24 07:57:04;;;;;;;22.17;15.20;;;;;;;26.71;55.95;100532.03;5061508;28;20051;-55
2023/07/24 07:59:32;;;;;;;20.73;15.88;;;;;;;26.69;55.94;100523.22;5064231;28;20515;-56
2023/07/24 08:01:59;;;;;;;20.77;15.75;;;;;;;26.67;56.00;100520.69;5066532;28;20052;-61
2023/07/24 08:04:26;;;;;;;18.50;14.23;;;;;;;26.69;56.09;100520.50;5073524;28;20051;-55
2023/07/24 08:06:54;;;;;;;21.67;14.65;;;;;;;26.75;56.11;100511.59;5065278;28;20045;-55
2023/07/24 08:09:23;;;;;;;20.58;14.27;;;;;;;26.82;56.08;100491.66;5073951;28;20048;-57
2023/07/24 08:11:51;;;;;;;20.80;14.63;;;;;;;26.92;56.34;100496.78;5060289;28;20045;-56
2023/07/24 08:14:18;;;;;;;16.30;12.68;;;;;;;26.98;56.28;100498.75;5066729;28;20369;-55
2023/07/24 08:16:49;;;;;;;19.75;14.20;;;;;;;27.04;55.98;100491.69;5060390;28;20049;-63
2023/07/24 08:19:17;;;;;;;18.70;13.88;;;;;;;27.11;55.95;100485.34;5061658;28;20415;-61
2023/07/24 08:21:44;;;;;;;18.05;14.18;;;;;;;27.17;55.71;100467.41;5066814;28;20040;-61
2023/07/24 08:24:12;;;;;;;20.30;13.68;;;;;;;27.23;55.90;100476.69;5066078;28;20043;-59
2023/07/24 08:26:39;;;;;;;18.88;13.65;;;;;;;27.29;56.29;100484.06;5061704;28;20412;-62
2023/07/24 08:29:06;;;;;;;17.10;12.93;;;;;;;27.32;56.64;100494.56;5058271;28;20052;-60
2023/07/24 08:31:34;;;;;;;16.55;12.38;;;;;;;27.35;57.38;100505.91;5066908;28;20049;-58
2023/07/24 08:34:01;;;;;;;20.13;13.75;;;;;;;27.41;58.03;100522.47;5065601;28;20060;-64
2023/07/24 08:36:29;;;;;;;16.75;12.43;;;;;;;27.43;58.72;100532.13;5061133;28;20044;-60
2023/07/24 08:38:57;;;;;;;16.63;12.98;;;;;;;27.47;58.68;100513.53;5057961;28;20049;-62
2023/07/24 08:41:24;;;;;;;14.35;11.77;;;;;;;27.51;58.86;100533.88;5067045;28;20040;-63
2023/07/24 08:43:53;;;;;;;14.63;12.05;;;;;;;27.54;59.89;100560.66;5072338;28;20044;-61
2023/07/24 08:46:22;;;;;;;16.88;13.00;;;;;;;27.58;59.87;100605.47;5064577;28;20073;-60
2023/07/24 08:48:49;;;;;;;17.85;12.85;;;;;;;27.60;59.70;100642.31;5066963;28;20044;-59
2023/07/24 08:51:18;;;;;;;15.15;11.70;;;;;;;27.64;59.29;100652.81;5064560;28;20048;-61
2023/07/24 08:53:47;;;;;;;16.63;13.18;;;;;;;27.67;59.25;100657.84;5072294;28;20111;-58
2023/07/24 08:56:14;;;;;;;17.58;12.98;;;;;;;27.69;59.34;100639.50;5069647;28;20052;-58
2023/07/24 08:58:42;;;;;;;21.05;14.40;;;;;;;27.70;59.45;100613.97;5068547;28;20506;-57
2023/07/24 09:01:10;;;;;;;14.75;12.43;;;;;;;27.70;59.39;100593.03;5064312;28;20075;-55
2023/07/24 09:03:37;;;;;;;18.70;12.60;;;;;;;27.71;59.15;100594.75;5060017;28;20045;-59
2023/07/24 09:06:07;;;;;;;14.65;11.65;;;;;;;27.72;58.80;100582.84;5067251;28;20049;-59
2023/07/24 09:08:37;;;;;;;16.13;12.40;;;;;;;27.72;58.99;100582.00;5055976;28;20067;-59
2023/07/24 09:11:06;;;;;;;16.70;13.80;;;;;;;27.76;58.53;100592.31;5062904;28;20044;-56
2023/07/24 09:13:37;;;;;;;13.77;11.75;;;;;;;27.80;58.64;100609.09;5068799;28;20530;-59
2023/07/24 09:16:05;;;;;;;14.02;11.25;;;;;;;27.85;58.29;100622.97;5061880;28;20072;-57
2023/07/24 09:18:43;;;;;;;13.68;12.02;;;;;;;27.91;57.96;100662.97;5057128;28;20063;-58
2023/07/24 09:21:13;;;;;;;15.35;12.73;;;;;;;27.94;58.04;100676.22;5063722;28;20055;-58
2023/07/24 09:23:43;;;;;;;17.58;13.80;;;;;;;28.01;58.49;100677.13;5054585;28;20049;-61
2023/07/24 09:26:10;;;;;;;16.85;13.93;;;;;;;28.01;57.59;100659.97;5063281;28;20063;-57
2023/07/24 09:28:38;;;;;;;16.50;13.73;;;;;;;28.00;57.20;100669.16;5059691;28;20051;-57
2023/07/24 09:31:05;;;;;;;18.13;13.35;;;;;;;28.00;57.08;100691.78;5065795;28;20044;-58
2023/07/24 09:33:37;;;;;;;17.17;13.50;;;;;;;27.99;57.58;100711.84;5063804;28;20060;-58
2023/07/24 09:36:09;;;;;;;19.48;14.80;;;;;;;28.01;57.78;100752.47;5063770;28;20049;-59
2023/07/24 09:38:37;;;;;;;18.50;14.70;;;;;;;28.00;58.17;100762.53;5071674;28;20055;-59
2023/07/24 09:41:06;;;;;;;18.77;14.20;;;;;;;28.02;58.54;100775.94;5070843;28;20068;-59
2023/07/24 09:43:36;;;;;;;17.92;13.93;;;;;;;28.00;58.93;100778.84;5062517;28;20049;-54
2023/07/24 09:46:08;;;;;;;15.18;13.45;;;;;;;28.00;58.99;100750.81;5061937;28;20049;-57
2023/07/24 09:48:37;;;;;;;18.00;15.50;;;;;;;28.01;60.15;100738.88;5057238;28;20076;-58
2023/07/24 09:51:25;;;;;;;19.33;15.15;;;;;;;28.00;61.27;100682.78;5065104;28;20045;-59
2023/07/24 09:54:00;;;;;;;22.60;16.92;;;;;;;27.99;62.20;100651.13;5056024;28;20056;-55
2023/07/24 09:56:29;;;;;;;19.45;15.20;;;;;;;27.96;63.15;100652.38;5063834;28;20048;-56
2023/07/24 09:59:17;;;;;;;19.05;15.88;;;;;;;27.94;62.76;100635.38;5055329;28;20116;-56
2023/07/24 10:01:47;;;;;;;22.38;15.55;;;;;;;27.93;63.16;100630.16;5065029;28;20515;-55
2023/07/24 10:04:15;;;;;;;19.75;14.93;;;;;;;27.95;63.01;100617.19;5070541;28;20056;-55
2023/07/24 10:06:43;;;;;;;20.63;16.80;;;;;;;27.97;62.83;100605.09;5063400;28;20071;-57
2023/07/24 10:09:11;;;;;;;20.50;15.18;;;;;;;27.98;62.56;100578.72;5067794;28;20386;-56
2023/07/24 10:11:38;;;;;;;21.00;14.55;;;;;;;28.01;62.66;100557.41;5062705;28;20049;-56
2023/07/24 10:14:06;;;;;;;16.58;14.07;;;;;;;28.05;62.68;100531.47;5070919;28;20113;-56
2023/07/24 10:16:34;;;;;;;16.58;14.02;;;;;;;28.09;62.54;100527.31;5071582;28;20067;-58
2023/07/24 10:19:12;;;;;;;18.67;14.20;;;;;;;28.12;62.66;100519.81;5065004;28;20053;-58
2023/07/24 10:21:45;;;;;;;21.65;15.82;;;;;;;28.11;62.79;100540.72;5062811;28;20094;-57
2023/07/24 10:24:12;;;;;;;18.35;16.13;;;;;;;28.12;62.42;100541.59;5071263;28;20049;-60
2023/07/24 10:26:55;;;;;;;17.77;14.55;;;;;;;28.17;62.00;100550.00;5067388;28;20056;-58
2023/07/24 10:29:28;;;;;;;18.90;15.03;;;;;;;28.20;62.00;100550.44;5070271;28;20049;-57
2023/07/24 10:31:55;;;;;;;17.52;14.07;;;;;;;28.22;61.67;100563.84;5063244;28;20045;-58
2023/07/24 10:34:23;;;;;;;18.88;14.68;;;;;;;28.25;61.05;100598.84;5069122;28;20400;-58
2023/07/24 10:36:50;;;;;;;17.45;15.07;;;;;;;28.26;61.14;100638.63;5065199;28;20041;-58
2023/07/24 10:39:21;;;;;;;21.98;16.05;;;;;;;28.26;61.24;100657.69;5069578;28;20045;-58
2023/07/24 10:41:48;;;;;;;20.48;15.15;;;;;;;28.26;61.26;100668.56;5063245;28;20396;-58
2023/07/24 10:44:16;;;;;;;20.50;15.48;;;;;;;28.27;61.17;100646.59;5055792;28;20591;-58
2023/07/24 10:46:43;;;;;;;15.82;12.73;;;;;;;28.28;60.43;100603.91;5061452;28;20059;-58
2023/07/24 10:49:11;;;;;;;15.50;13.73;;;;;;;28.27;59.97;100562.19;5058313;28;20059;-58
2023/07/24 10:51:39;;;;;;;16.33;14.25;;;;;;;28.29;59.71;100556.59;5057033;28;20044;-58
2023/07/24 10:54:06;;;;;;;15.85;13.35;;;;;;;28.31;60.26;100568.94;5068705;28;20048;-58
2023/07/24 10:56:36;;;;;;;18.50;14.18;;;;;;;28.35;60.30;100558.50;5061493;28;20404;-58
2023/07/24 10:59:04;;;;;;;19.42;15.75;;;;;;;28.37;60.34;100531.97;5064517;28;20503;-58
2023/07/24 11:01:33;;;;;;;18.02;15.60;;;;;;;28.40;60.17;100506.19;5062736;28;20539;-59
2023/07/24 11:04:02;;;;;;;19.13;14.40;;;;;;;28.45;60.11;100512.75;5068923;28;20391;-59
2023/07/24 11:06:29;;;;;;;19.40;13.60;;;;;;;28.47;59.85;100512.53;5056870;28;20045;-58
2023/07/24 11:08:59;;;;;;;16.85;13.93;;;;;;;28.48;59.79;100506.03;5057336;28;20048;-58
2023/07/24 11:11:35;;;;;;;17.27;14.27;;;;;;;28.49;59.55;100491.41;5069925;28;20048;-59
2023/07/24 11:14:03;;;;;;;17.13;14.65;;;;;;;28.48;58.51;100479.66;5058922;28;20075;-58